Time;durP1;ratioP1;P1;durP2;ratioP2;P2;SDS_P1;SDS_P2;PMS_P1;PMS_P2;Temp;Humidity;BMP_temperature;BMP_pressure;BME280_temperature;BME280_humidity;BME280_pressure;Samples;Min_cycle;Max_cycle;Signal;HPM_P1;HPM_P2
2021/10/21 00:02:01;;;;;;;;;;;;;;;13.42;91.76;95341.72;5075195;28;19994;-72
2021/10/21 00:04:28;;;;;;;;;;;;;;;13.39;90.43;95321.97;5074832;28;20018;-72
2021/10/21 00:06:54;;;;;;;;;;;;;;;13.35;92.41;95323.53;5075208;28;19954;-72
2021/10/21 00:09:20;;;;;;;;;;;;;;;13.29;92.01;95320.13;5075145;28;19959;-72
2021/10/21 00:11:46;;;;;;;;;;;;;;;13.25;90.94;95326.94;5074721;28;19962;-73
2021/10/21 00:14:12;;;;;;;;;;;;;;;13.22;92.13;95316.91;5075141;28;19972;-73
2021/10/21 00:16:38;;;;;;;;;;;;;;;13.20;91.32;95313.75;5074668;28;19954;-73
2021/10/21 00:19:04;;;;;;;;;;;;;;;13.19;93.73;95318.25;5074448;28;19971;-75
2021/10/21 00:21:29;;;;;;;;;;;;;;;13.18;92.73;95307.97;5074842;28;20020;-74
2021/10/21 00:23:55;;;;;;;;;;;;;;;13.14;92.99;95296.38;5074760;28;20015;-74
2021/10/21 00:26:21;;;;;;;;;;;;;;;13.07;97.15;95290.59;5074612;28;19952;-73
2021/10/21 00:28:47;;;;;;;;;;;;;;;13.02;95.72;95293.19;5074650;28;20027;-73
2021/10/21 00:31:13;;;;;;;;;;;;;;;13.00;97.44;95301.38;5074488;28;19963;-74
2021/10/21 00:33:39;;;;;;;;;;;;;;;12.98;95.45;95292.94;5074707;28;19953;-74
2021/10/21 00:36:05;;;;;;;;;;;;;;;12.99;95.47;95289.25;5073194;28;20076;-74
2021/10/21 00:38:31;;;;;;;;;;;;;;;12.98;97.12;95269.25;5074791;28;20401;-74
2021/10/21 00:40:57;;;;;;;;;;;;;;;12.98;97.04;95251.63;5073161;28;19958;-74
2021/10/21 00:43:23;;;;;;;;;;;;;;;12.98;97.74;95248.22;5074507;28;19979;-74
2021/10/21 00:45:49;;;;;;;;;;;;;;;13.00;98.35;95246.91;5073905;28;19959;-74
2021/10/21 00:48:15;;;;;;;;;;;;;;;13.00;98.18;95241.63;5074496;28;19964;-74
2021/10/21 00:50:42;;;;;;;;;;;;;;;13.04;98.87;95239.28;5074047;28;19959;-74
2021/10/21 00:53:09;;;;;;;;;;;;;;;13.05;100.00;95238.22;5074068;28;19989;-74
2021/10/21 00:55:35;;;;;;;;;;;;;;;13.04;98.57;95227.94;5073967;28;19964;-74
2021/10/21 00:58:04;;;;;;;;;;;;;;;13.06;97.74;95233.72;5074139;28;19964;-74
2021/10/21 01:00:31;;;;;;;;;;;;;;;13.07;99.81;95225.56;5074074;28;20332;-73
2021/10/21 01:02:57;;;;;;;;;;;;;;;13.06;99.82;95229.28;5072847;28;20342;-73
2021/10/21 01:05:23;;;;;;;;;;;;;;;13.05;98.43;95219.78;5072347;28;19958;-74
2021/10/21 01:07:49;;;;;;;;;;;;;;;13.06;100.00;95194.25;5073875;28;19960;-74
2021/10/21 01:10:15;;;;;;;;;;;;;;;13.05;99.60;95200.59;5074001;28;19961;-73
2021/10/21 01:12:41;;;;;;;;;;;;;;;13.04;100.00;95207.69;5073745;28;19956;-73
2021/10/21 01:15:33;;;;;;;;;;;;;;;13.04;99.89;95215.59;5073869;28;20304;-73
2021/10/21 01:17:59;;;;;;;;;;;;;;;13.03;100.00;95200.06;5062732;28;19957;-73
2021/10/21 01:20:27;;;;;;;;;;;;;;;13.03;100.00;95197.41;5073519;28;19965;-73
2021/10/21 01:22:53;;;;;;;;;;;;;;;13.00;100.00;95181.09;5073494;28;19974;-74
2021/10/21 01:25:19;;;;;;;;;;;;;;;13.00;100.00;95182.97;5073846;28;19954;-73
2021/10/21 01:27:46;;;;;;;;;;;;;;;13.02;100.00;95159.81;5073562;28;19957;-73
2021/10/21 01:30:20;;;;;;;;;;;;;;;13.05;100.00;95156.63;5073577;28;19970;-73
2021/10/21 01:32:46;;;;;;;;;;;;;;;13.09;100.00;95155.03;5073541;28;19963;-73
2021/10/21 01:35:12;;;;;;;;;;;;;;;13.11;100.00;95149.53;5073403;28;20318;-74
2021/10/21 01:37:38;;;;;;;;;;;;;;;13.17;100.00;95145.84;5073760;28;19956;-74
2021/10/21 01:40:04;;;;;;;;;;;;;;;13.24;100.00;95121.84;5073505;28;20002;-73
2021/10/21 01:42:30;;;;;;;;;;;;;;;13.29;100.00;95125.31;5073230;28;19962;-74
2021/10/21 01:44:56;;;;;;;;;;;;;;;13.33;100.00;95105.28;5073487;28;19994;-74
2021/10/21 01:47:22;;;;;;;;;;;;;;;13.35;100.00;95105.78;5073543;28;20337;-73
2021/10/21 01:49:48;;;;;;;;;;;;;;;13.38;100.00;95099.22;5073399;28;20036;-73
2021/10/21 01:52:15;;;;;;;;;;;;;;;13.40;100.00;95089.19;5073440;28;19965;-73
2021/10/21 01:54:41;;;;;;;;;;;;;;;13.42;100.00;95096.81;5073304;28;19978;-73
2021/10/21 01:57:07;;;;;;;;;;;;;;;13.42;100.00;95091.53;5073460;28;19958;-73
2021/10/21 01:59:33;;;;;;;;;;;;;;;13.42;100.00;95083.66;5073151;28;20010;-73
2021/10/21 02:01:59;;;;;;;;;;;;;;;13.42;100.00;95079.19;5073885;28;19953;-73
2021/10/21 02:04:25;;;;;;;;;;;;;;;13.45;100.00;95086.53;5073095;28;20037;-73
2021/10/21 02:06:51;;;;;;;;;;;;;;;13.43;100.00;95077.34;5072119;28;20348;-73
2021/10/21 02:09:17;;;;;;;;;;;;;;;13.43;100.00;95072.84;5073099;28;19950;-73
2021/10/21 02:11:42;;;;;;;;;;;;;;;13.41;100.00;95056.53;5073116;28;19998;-73
2021/10/21 02:14:08;;;;;;;;;;;;;;;13.39;100.00;95053.38;5073161;28;20401;-73
2021/10/21 02:16:34;;;;;;;;;;;;;;;13.37;100.00;95040.47;5074141;28;20010;-73
2021/10/21 02:19:00;;;;;;;;;;;;;;;13.34;100.00;95037.63;5076995;28;19963;-74
2021/10/21 02:21:26;;;;;;;;;;;;;;;13.34;100.00;95027.09;5076878;28;19959;-74
2021/10/21 02:23:52;;;;;;;;;;;;;;;13.31;100.00;95033.69;5077025;28;19976;-74
2021/10/21 02:26:18;;;;;;;;;;;;;;;13.30;100.00;95037.34;5076994;28;20559;-75
2021/10/21 02:28:44;;;;;;;;;;;;;;;13.30;100.00;95047.88;5077089;28;20058;-74
2021/10/21 02:31:10;;;;;;;;;;;;;;;13.31;100.00;95052.13;5076913;28;19958;-73
2021/10/21 02:33:36;;;;;;;;;;;;;;;13.32;100.00;95037.88;5075642;28;20446;-74
2021/10/21 02:36:02;;;;;;;;;;;;;;;13.32;100.00;95037.88;5076708;28;19959;-74
2021/10/21 02:38:28;;;;;;;;;;;;;;;13.35;100.00;95041.81;5075385;28;19954;-74
2021/10/21 02:40:55;;;;;;;;;;;;;;;13.36;100.00;95035.50;5076678;28;19952;-74
2021/10/21 02:43:21;;;;;;;;;;;;;;;13.39;100.00;95024.41;5076579;28;19974;-74
2021/10/21 02:45:47;;;;;;;;;;;;;;;13.44;100.00;95002.53;5076862;28;20463;-74
2021/10/21 02:48:13;;;;;;;;;;;;;;;13.46;100.00;95017.03;5075267;28;19958;-74
2021/10/21 02:50:39;;;;;;;;;;;;;;;13.52;100.00;94994.88;5076437;28;20052;-73
2021/10/21 02:53:04;;;;;;;;;;;;;;;13.56;99.36;94995.88;5076365;28;20072;-74
2021/10/21 02:55:30;;;;;;;;;;;;;;;13.60;98.28;94989.00;5076442;28;19972;-74
2021/10/21 02:57:56;;;;;;;;;;;;;;;13.64;97.67;95006.94;5076560;28;19954;-74
2021/10/21 03:00:22;;;;;;;;;;;;;;;13.65;96.30;94997.94;5076454;28;19963;-74
2021/10/21 03:02:48;;;;;;;;;;;;;;;13.68;94.21;94997.41;5076320;28;19970;-74
2021/10/21 03:05:14;;;;;;;;;;;;;;;13.72;94.31;95012.41;5076209;28;20526;-74
2021/10/21 03:07:40;;;;;;;;;;;;;;;13.72;95.27;95016.88;5076178;28;19954;-74
2021/10/21 03:10:06;;;;;;;;;;;;;;;13.71;95.08;95028.47;5075967;28;19968;-74
2021/10/21 03:12:33;;;;;;;;;;;;;;;13.68;95.59;95031.66;5075976;28;19957;-74
2021/10/21 03:14:58;;;;;;;;;;;;;;;13.66;96.03;95055.63;5075818;28;20038;-73
2021/10/21 03:17:24;;;;;;;;;;;;;;;13.62;98.10;95062.50;5075988;28;20006;-72
2021/10/21 03:19:50;;;;;;;;;;;;;;;13.56;99.83;95058.31;5075973;28;20383;-73
2021/10/21 03:22:16;;;;;;;;;;;;;;;13.50;100.00;95086.53;5075681;28;19964;-73
2021/10/21 03:24:42;;;;;;;;;;;;;;;13.47;98.97;95059.94;5075875;28;19977;-74
2021/10/21 03:27:08;;;;;;;;;;;;;;;13.44;98.77;95076.25;5075434;28;19990;-74
2021/10/21 03:29:35;;;;;;;;;;;;;;;13.40;96.60;95078.66;5076086;28;20424;-74
2021/10/21 03:32:01;;;;;;;;;;;;;;;13.38;96.80;95070.25;5075787;28;19962;-74
2021/10/21 03:34:26;;;;;;;;;;;;;;;13.33;96.18;95065.00;5075619;28;19957;-74
2021/10/21 03:36:52;;;;;;;;;;;;;;;13.32;94.66;95068.69;5075787;28;19964;-74
2021/10/21 03:39:18;;;;;;;;;;;;;;;13.30;92.23;95070.81;5075386;28;19989;-74
2021/10/21 03:41:44;;;;;;;;;;;;;;;13.27;91.37;95069.47;5075572;28;20479;-74
2021/10/21 03:44:10;;;;;;;;;;;;;;;13.26;89.41;95069.72;5075347;28;19969;-74
2021/10/21 03:46:37;;;;;;;;;;;;;;;13.24;88.33;95085.00;5074127;28;19964;-74
2021/10/21 03:49:03;;;;;;;;;;;;;;;13.20;88.10;95111.06;5075397;28;19970;-75
2021/10/21 03:51:28;;;;;;;;;;;;;;;13.17;88.90;95109.75;5075495;28;19967;-75
2021/10/21 03:53:54;;;;;;;;;;;;;;;13.11;88.96;95105.56;5075274;28;20361;-74
2021/10/21 03:56:20;;;;;;;;;;;;;;;13.08;87.90;95121.09;5075252;28;19963;-75
2021/10/21 03:58:46;;;;;;;;;;;;;;;13.04;88.01;95131.38;5075221;28;20016;-75
2021/10/21 04:01:12;;;;;;;;;;;;;;;13.01;87.09;95129.25;5075105;28;19996;-75
2021/10/21 04:03:38;;;;;;;;;;;;;;;13.00;86.42;95151.38;5075305;28;20012;-75
2021/10/21 04:06:04;;;;;;;;;;;;;;;13.00;87.67;95154.00;5075169;28;20324;-75
2021/10/21 04:08:30;;;;;;;;;;;;;;;12.96;85.02;95150.34;5075552;28;20066;-75
2021/10/21 04:10:56;;;;;;;;;;;;;;;12.93;85.56;95162.16;5075536;28;19976;-75
2021/10/21 04:13:22;;;;;;;;;;;;;;;12.91;85.00;95148.47;5074981;28;19960;-76
2021/10/21 04:15:48;;;;;;;;;;;;;;;12.89;84.84;95157.69;5075247;28;19968;-75
2021/10/21 04:18:14;;;;;;;;;;;;;;;12.86;83.39;95161.63;5074728;28;19959;-75
2021/10/21 04:20:39;;;;;;;;;;;;;;;12.80;81.75;95181.88;5074894;28;19959;-76
2021/10/21 04:23:05;;;;;;;;;;;;;;;12.76;82.33;95172.94;5074435;28;20004;-75
2021/10/21 04:25:31;;;;;;;;;;;;;;;12.74;78.78;95179.50;5074678;28;20414;-75
2021/10/21 04:27:57;;;;;;;;;;;;;;;12.68;78.65;95199.78;5074469;28;19959;-76
2021/10/21 04:30:23;;;;;;;;;;;;;;;12.60;77.58;95200.28;5074684;28;19965;-75
2021/10/21 04:32:50;;;;;;;;;;;;;;;12.55;77.38;95219.47;5074425;28;19963;-76
2021/10/21 04:35:16;;;;;;;;;;;;;;;12.48;73.45;95229.44;5074686;28;19971;-75
2021/10/21 04:37:42;;;;;;;;;;;;;;;12.42;71.57;95240.22;5074442;28;19963;-75
2021/10/21 04:40:08;;;;;;;;;;;;;;;12.39;76.76;95252.03;5073655;28;19960;-76
2021/10/21 04:42:34;;;;;;;;;;;;;;;12.27;69.07;95251.47;5073021;28;20321;-76
2021/10/21 04:44:59;;;;;;;;;;;;;;;12.22;70.59;95257.50;5074194;28;19980;-75
2021/10/21 04:47:25;;;;;;;;;;;;;;;12.18;72.61;95272.22;5074148;28;19963;-76
2021/10/21 04:49:51;;;;;;;;;;;;;;;12.10;69.12;95277.97;5074239;28;19988;-75
2021/10/21 04:52:17;;;;;;;;;;;;;;;12.00;69.97;95270.81;5073917;28;20413;-76
2021/10/21 04:54:43;;;;;;;;;;;;;;;11.94;71.39;95277.06;5074556;28;19988;-75
2021/10/21 04:57:09;;;;;;;;;;;;;;;11.83;68.03;95265.69;5073922;28;19966;-75
2021/10/21 04:59:35;;;;;;;;;;;;;;;11.81;70.91;95280.91;5074240;28;19999;-75
2021/10/21 05:02:01;;;;;;;;;;;;;;;11.75;70.57;95298.47;5074118;28;20001;-75
2021/10/21 05:04:27;;;;;;;;;;;;;;;11.73;70.34;95286.63;5073997;28;20418;-75
2021/10/21 05:06:53;;;;;;;;;;;;;;;11.74;68.94;95285.63;5073857;28;19991;-76
2021/10/21 05:09:19;;;;;;;;;;;;;;;11.74;70.87;95283.00;5073923;28;20381;-75
2021/10/21 05:11:45;;;;;;;;;;;;;;;11.75;71.41;95287.19;5073674;28;20317;-75
2021/10/21 05:14:11;;;;;;;;;;;;;;;11.71;72.72;95297.38;5073761;28;20033;-75
2021/10/21 05:16:37;;;;;;;;;;;;;;;11.71;74.94;95299.22;5073816;28;19954;-75
2021/10/21 05:19:03;;;;;;;;;;;;;;;11.70;74.41;95298.44;5073416;28;19996;-75
2021/10/21 05:21:29;;;;;;;;;;;;;;;11.70;74.09;95318.69;5073829;28;20314;-74
2021/10/21 05:23:55;;;;;;;;;;;;;;;11.69;73.29;95302.09;5073601;28;19981;-74
2021/10/21 05:26:21;;;;;;;;;;;;;;;11.65;71.54;95322.03;5073668;28;19967;-74
2021/10/21 05:28:47;;;;;;;;;;;;;;;11.63;69.97;95315.47;5073803;28;19961;-74
2021/10/21 05:31:13;;;;;;;;;;;;;;;11.60;69.34;95329.88;5073813;28;20443;-74
2021/10/21 05:33:39;;;;;;;;;;;;;;;11.56;70.15;95329.59;5073602;28;19963;-75
2021/10/21 05:36:05;;;;;;;;;;;;;;;11.55;70.67;95337.75;5073425;28;19958;-74
2021/10/21 05:38:31;;;;;;;;;;;;;;;11.47;69.25;95325.84;5073906;28;19958;-74
2021/10/21 05:40:57;;;;;;;;;;;;;;;11.39;68.34;95331.56;5073537;28;19961;-74
2021/10/21 05:43:24;;;;;;;;;;;;;;;11.37;67.76;95334.44;5073538;28;19956;-75
2021/10/21 05:45:49;;;;;;;;;;;;;;;11.35;67.87;95348.84;5073535;28;19969;-75
2021/10/21 05:48:16;;;;;;;;;;;;;;;11.31;68.28;95364.28;5073607;28;19959;-76
2021/10/21 05:50:43;;;;;;;;;;;;;;;11.27;69.88;95365.81;5073269;28;19964;-75
2021/10/21 05:53:09;;;;;;;;;;;;;;;11.25;69.32;95370.53;5076958;28;19981;-75
2021/10/21 05:55:35;;;;;;;;;;;;;;;11.21;69.87;95381.78;5077731;28;19960;-75
2021/10/21 05:58:01;;;;;;;;;;;;;;;11.19;70.36;95387.25;5077258;28;19957;-75
2021/10/21 06:00:27;;;;;;;;;;;;;;;11.14;69.94;95398.50;5077434;28;20007;-75
2021/10/21 06:02:52;;;;;;;;;;;;;;;11.12;69.81;95405.03;5077352;28;19955;-75
2021/10/21 06:05:22;;;;;;;;;;;;;;;11.11;69.96;95413.97;5077106;28;20125;-75
2021/10/21 06:07:51;;;;;;;;;;;;;;;11.12;69.36;95418.16;5077677;28;19972;-75
2021/10/21 06:10:17;;;;;;;;;;;;;;;11.12;71.31;95418.94;5077283;28;19972;-75
2021/10/21 06:12:48;;;;;;;;;;;;;;;11.12;70.93;95442.56;5077088;28;19959;-75
2021/10/21 06:15:16;;;;;;;;;;;;;;;11.12;71.07;95454.91;5077297;28;20358;-75
2021/10/21 06:17:42;;;;;;;;;;;;;;;11.09;69.40;95450.16;5076933;28;19985;-75
2021/10/21 06:20:13;;;;;;;;;;;;;;;11.12;70.34;95455.69;5077097;28;19965;-75
2021/10/21 06:22:39;;;;;;;;;;;;;;;11.14;69.42;95463.31;5077613;28;20426;-75
2021/10/21 06:25:09;;;;;;;;;;;;;;;11.16;70.58;95466.50;5076991;28;19973;-77
2021/10/21 06:27:35;;;;;;;;;;;;;;;11.16;70.03;95456.00;5076985;28;19966;-75
2021/10/21 06:30:01;;;;;;;;;;;;;;;11.13;69.85;95470.41;5076641;28;19980;-75
2021/10/21 06:32:27;;;;;;;;;;;;;;;11.14;69.54;95476.44;5076772;28;20018;-75
2021/10/21 06:34:53;;;;;;;;;;;;;;;11.14;68.82;95458.06;5076809;28;19959;-75
2021/10/21 06:37:19;;;;;;;;;;;;;;;11.13;66.96;95461.75;5076878;28;19952;-75
2021/10/21 06:39:53;;;;;;;;;;;;;;;11.15;66.12;95468.31;5076649;28;19956;-75
2021/10/21 06:42:19;;;;;;;;;;;;;;;11.18;65.77;95482.78;5076700;28;20419;-75
2021/10/21 06:44:45;;;;;;;;;;;;;;;11.23;67.10;95479.41;5076214;28;19966;-75
2021/10/21 06:47:11;;;;;;;;;;;;;;;11.26;66.09;95492.84;5076896;28;19990;-75
2021/10/21 06:49:37;;;;;;;;;;;;;;;11.37;65.75;95499.00;5076405;28;20005;-75
2021/10/21 06:52:04;;;;;;;;;;;;;;;11.45;65.92;95506.44;5076340;28;20436;-75
2021/10/21 06:54:29;;;;;;;;;;;;;;;11.59;64.40;95485.88;5076203;28;19981;-75
2021/10/21 06:56:55;;;;;;;;;;;;;;;11.71;62.25;95472.56;5076423;28;19956;-75
2021/10/21 06:59:21;;;;;;;;;;;;;;;11.89;63.21;95501.13;5076031;28;20002;-75
2021/10/21 07:01:47;;;;;;;;;;;;;;;12.04;64.18;95500.47;5076036;28;20409;-75
2021/10/21 07:04:13;;;;;;;;;;;;;;;12.10;63.51;95511.84;5075616;28;19978;-74
2021/10/21 07:06:39;;;;;;;;;;;;;;;12.10;61.17;95504.72;5076373;28;19966;-75
2021/10/21 07:09:05;;;;;;;;;;;;;;;12.03;59.80;95504.13;5076292;28;19958;-74
2021/10/21 07:11:31;;;;;;;;;;;;;;;11.93;61.59;95531.13;5076226;28;19962;-75
2021/10/21 07:13:57;;;;;;;;;;;;;;;11.83;62.71;95553.84;5075867;28;19958;-75
2021/10/21 07:16:23;;;;;;;;;;;;;;;11.76;63.39;95570.59;5076305;28;19967;-75
2021/10/21 07:18:49;;;;;;;;;;;;;;;11.69;61.60;95564.72;5075845;28;20317;-75
2021/10/21 07:21:17;;;;;;;;;;;;;;;11.70;62.14;95574.22;5075777;28;19965;-75
2021/10/21 07:23:46;;;;;;;;;;;;;;;11.69;61.00;95567.34;5075744;28;19963;-75
2021/10/21 07:26:13;;;;;;;;;;;;;;;11.85;60.08;95572.78;5075632;28;19951;-75
2021/10/21 07:28:40;;;;;;;;;;;;;;;11.95;58.83;95565.81;5075707;28;19969;-75
2021/10/21 07:31:08;;;;;;;;;;;;;;;11.99;58.62;95571.38;5075552;28;19955;-75
2021/10/21 07:33:34;;;;;;;;;;;;;;;11.97;58.35;95597.13;5075672;28;19948;-75
2021/10/21 07:36:00;;;;;;;;;;;;;;;11.96;60.42;95627.03;5075615;28;19996;-75
2021/10/21 07:38:26;;;;;;;;;;;;;;;11.93;59.60;95636.22;5075635;28;20412;-75
2021/10/21 07:40:52;;;;;;;;;;;;;;;11.87;59.34;95626.66;5075505;28;19954;-75
2021/10/21 07:43:18;;;;;;;;;;;;;;;11.86;61.16;95661.06;5075211;28;19985;-75
2021/10/21 07:45:44;;;;;;;;;;;;;;;11.85;59.88;95651.59;5075419;28;20504;-75
2021/10/21 07:48:10;;;;;;;;;;;;;;;11.84;61.28;95679.69;5075419;28;19951;-76
2021/10/21 07:50:37;;;;;;;;;;;;;;;11.85;63.32;95699.66;5075252;28;19971;-77
2021/10/21 07:53:03;;;;;;;;;;;;;;;11.84;61.02;95724.34;5075085;28;20463;-75
2021/10/21 07:55:33;;;;;;;;;;;;;;;11.78;60.79;95712.19;5075347;28;19968;-75
2021/10/21 07:57:59;;;;;;;;;;;;;;;11.71;58.28;95670.31;5075311;28;19964;-75
2021/10/21 08:00:26;;;;;;;;;;;;;;;11.68;59.70;95719.94;5075454;28;19958;-75
2021/10/21 08:02:52;;;;;;;;;;;;;;;11.63;58.41;95701.47;5075168;28;19983;-75
2021/10/21 08:05:18;;;;;;;;;;;;;;;11.67;59.01;95706.00;5075028;28;19957;-75
2021/10/21 08:07:45;;;;;;;;;;;;;;;11.82;57.47;95700.13;5074837;28;20379;-75
2021/10/21 08:10:11;;;;;;;;;;;;;;;11.83;57.74;95720.13;5074970;28;19960;-75
2021/10/21 08:12:38;;;;;;;;;;;;;;;11.83;57.09;95717.50;5075242;28;20332;-75
2021/10/21 08:15:05;;;;;;;;;;;;;;;11.82;57.67;95709.88;5073973;28;19965;-75
2021/10/21 08:17:31;;;;;;;;;;;;;;;11.80;57.41;95728.50;5074874;28;19961;-75
2021/10/21 08:19:58;;;;;;;;;;;;;;;11.77;56.21;95740.28;5074652;28;20005;-75
2021/10/21 08:22:24;;;;;;;;;;;;;;;11.81;57.15;95747.69;5074595;28;20331;-76
2021/10/21 08:24:50;;;;;;;;;;;;;;;11.83;56.86;95751.66;5074325;28;19966;-75
2021/10/21 08:27:16;;;;;;;;;;;;;;;11.85;56.61;95754.84;5074798;28;19957;-75
2021/10/21 08:29:42;;;;;;;;;;;;;;;11.85;55.99;95751.44;5074797;28;19967;-75
2021/10/21 08:32:11;;;;;;;;;;;;;;;11.84;56.74;95773.47;5074434;28;20338;-75
2021/10/21 08:34:38;;;;;;;;;;;;;;;11.85;58.39;95801.34;5074585;28;20324;-75
2021/10/21 08:37:04;;;;;;;;;;;;;;;11.82;56.86;95792.09;5074449;28;19958;-75
2021/10/21 08:39:30;;;;;;;;;;;;;;;11.82;56.01;95799.19;5074367;28;20424;-75
2021/10/21 08:41:56;;;;;;;;;;;;;;;11.82;57.15;95825.44;5074125;28;20043;-75
2021/10/21 08:44:22;;;;;;;;;;;;;;;11.79;56.96;95831.97;5074095;28;20046;-75
2021/10/21 08:46:52;;;;;;;;;;;;;;;11.74;57.62;95866.84;5074170;28;20418;-75
2021/10/21 08:49:19;;;;;;;;;;;;;;;11.71;58.27;95872.56;5074312;28;19958;-75
2021/10/21 08:51:46;;;;;;;;;;;;;;;11.67;58.48;95891.69;5074071;28;19968;-75
2021/10/21 08:54:12;;;;;;;;;;;;;;;11.60;59.67;95898.94;5074212;28;19978;-75
2021/10/21 08:56:38;;;;;;;;;;;;;;;11.51;60.49;95930.03;5073895;28;19961;-75
2021/10/21 08:59:05;;;;;;;;;;;;;;;11.45;62.29;95939.63;5074110;28;19961;-75
2021/10/21 09:01:39;;;;;;;;;;;;;;;11.41;64.21;95961.34;5073932;28;19957;-75
2021/10/21 09:09:40;;;;;;;;;;;;;;;11.07;68.72;95988.28;5073982;28;19958;-75
2021/10/21 09:12:11;;;;;;;;;;;;;;;10.96;70.04;95999.56;5073818;28;19962;-75
2021/10/21 09:14:41;;;;;;;;;;;;;;;10.89;69.93;96007.56;5073861;28;19961;-75
2021/10/21 09:17:09;;;;;;;;;;;;;;;10.79;72.27;96014.44;5073729;28;19953;-74
2021/10/21 09:19:35;;;;;;;;;;;;;;;10.72;72.05;96010.09;5073589;28;19967;-74
2021/10/21 09:22:01;;;;;;;;;;;;;;;10.62;75.50;96012.50;5073658;28;19963;-75
2021/10/21 09:24:28;;;;;;;;;;;;;;;10.58;76.81;96032.31;5073738;28;20332;-74
2021/10/21 09:27:00;;;;;;;;;;;;;;;10.54;74.35;96032.00;5073664;28;19954;-74
2021/10/21 09:29:26;;;;;;;;;;;;;;;10.52;75.59;96035.84;5073617;28;20319;-74
2021/10/21 09:32:09;;;;;;;;;;;;;;;10.51;72.45;96037.69;5073944;28;19961;-74
2021/10/21 09:34:42;;;;;;;;;;;;;;;10.55;75.51;96027.56;5063486;28;19963;-74
2021/10/21 09:37:12;;;;;;;;;;;;;;;10.72;75.28;96030.28;5060592;28;20340;-75
2021/10/21 09:39:44;;;;;;;;;;;;;;;10.91;75.63;96034.38;5073190;28;19969;-75
2021/10/21 09:42:10;;;;;;;;;;;;;;;11.07;73.33;96032.88;5074209;28;19964;-75
2021/10/21 09:44:36;;;;;;;;;;;;;;;11.22;72.74;96032.41;5072258;28;19974;-75
2021/10/21 09:47:22;;;;;;;;;;;;;;;11.38;71.34;96022.97;5073549;28;20459;-75
2021/10/21 09:49:54;;;;;;;;;;;;;;;11.43;71.62;96033.59;5072985;28;19963;-75
2021/10/21 09:52:22;;;;;;;;;;;;;;;11.44;70.07;96050.13;5073551;28;20421;-75
2021/10/21 09:54:49;;;;;;;;;;;;;;;11.40;68.75;96039.28;5073098;28;20464;-75
2021/10/21 09:57:18;;;;;;;;;;;;;;;11.32;68.89;96050.97;5073172;28;19965;-75
2021/10/21 09:59:45;;;;;;;;;;;;;;;11.22;70.07;96061.25;5073254;28;19954;-75
2021/10/21 10:02:16;;;;;;;;;;;;;;;11.15;70.33;96060.59;5073427;28;20436;-75
2021/10/21 10:04:44;;;;;;;;;;;;;;;11.02;69.17;96077.38;5073268;28;19978;-75
2021/10/21 10:07:11;;;;;;;;;;;;;;;10.88;69.34;96063.69;5073086;28;19953;-75
2021/10/21 10:09:37;;;;;;;;;;;;;;;10.79;70.15;96078.16;5073274;28;19955;-75
2021/10/21 10:12:05;;;;;;;;;;;;;;;10.69;69.72;96072.72;5073288;28;19957;-75
2021/10/21 10:14:41;;;;;;;;;;;;;;;10.55;68.65;96074.75;5073076;28;19960;-75
2021/10/21 10:17:07;;;;;;;;;;;;;;;10.46;69.52;96079.53;5073151;28;19961;-75
2021/10/21 10:19:33;;;;;;;;;;;;;;;10.39;70.62;96078.81;5073096;28;20396;-75
2021/10/21 10:22:01;;;;;;;;;;;;;;;10.38;69.34;96068.56;5073487;28;19962;-74
2021/10/21 10:24:35;;;;;;;;;;;;;;;10.57;71.53;96077.94;5072971;28;19959;-75
2021/10/21 10:27:16;;;;;;;;;;;;;;;10.87;70.30;96066.53;5073054;28;19968;-75
2021/10/21 10:29:45;;;;;;;;;;;;;;;11.17;67.64;96045.41;5073025;28;19964;-75
2021/10/21 10:32:29;;;;;;;;;;;;;;;11.44;66.21;96037.81;5063962;28;19956;-75
2021/10/21 10:34:57;;;;;;;;;;;;;;;11.70;64.79;96039.09;5072934;28;19957;-75
2021/10/21 10:37:23;;;;;;;;;;;;;;;11.92;62.92;96012.19;5073440;28;19961;-74
2021/10/21 10:39:53;;;;;;;;;;;;;;;12.04;60.30;95988.47;5076700;28;19957;-74
2021/10/21 10:42:28;;;;;;;;;;;;;;;12.19;59.29;95979.00;5077033;28;20411;-74
2021/10/21 10:44:54;;;;;;;;;;;;;;;12.37;60.28;95991.09;5076350;28;20466;-74
2021/10/21 10:47:39;;;;;;;;;;;;;;;12.53;60.17;96002.63;5076647;28;19953;-74
2021/10/21 10:50:07;;;;;;;;;;;;;;;12.68;59.16;95994.19;5076251;28;20302;-75
2021/10/21 10:52:59;;;;;;;;;;;;;;;12.80;60.14;96009.84;5076649;28;19963;-75
2021/10/21 10:55:27;;;;;;;;;;;;;;;12.95;57.74;95967.94;5075568;28;20403;-74
2021/10/21 10:57:54;;;;;;;;;;;;;;;12.99;54.79;95948.00;5076228;28;19961;-75
2021/10/21 11:00:35;;;;;;;;;;;;;;;13.07;58.07;95981.00;5076496;28;19957;-74
2021/10/21 11:03:01;;;;;;;;;;;;;;;13.14;56.66;95957.91;5074856;28;19961;-77
2021/10/21 11:05:42;;;;;;;;;;;;;;;13.27;57.26;95969.91;5076300;28;20421;-74
2021/10/21 11:08:08;;;;;;;;;;;;;;;13.38;57.34;95969.00;5076108;28;20330;-74
2021/10/21 11:10:36;;;;;;;;;;;;;;;13.47;56.28;95961.47;5075891;28;19970;-74
2021/10/21 11:13:16;;;;;;;;;;;;;;;13.58;54.92;95946.53;5076422;28;19962;-74
2021/10/21 11:15:43;;;;;;;;;;;;;;;13.65;54.30;95933.97;5074816;28;19965;-75
2021/10/21 11:18:09;;;;;;;;;;;;;;;13.69;52.04;95931.63;5075853;28;19970;-75
2021/10/21 11:20:35;;;;;;;;;;;;;;;13.69;51.95;95929.00;5076385;28;19959;-74
2021/10/21 11:23:05;;;;;;;;;;;;;;;13.70;52.21;95933.22;5075995;28;20372;-75
2021/10/21 11:25:35;;;;;;;;;;;;;;;13.68;52.01;95936.09;5075799;28;19974;-75
2021/10/21 11:28:01;;;;;;;;;;;;;;;13.76;50.85;95930.38;5075586;28;20424;-75
2021/10/21 11:30:29;;;;;;;;;;;;;;;13.81;51.08;95930.41;5075588;28;19960;-75
2021/10/21 11:32:56;;;;;;;;;;;;;;;13.86;51.61;95948.13;5076192;28;19958;-75
2021/10/21 11:35:28;;;;;;;;;;;;;;;13.83;48.79;95926.75;5075599;28;19955;-75
2021/10/21 11:37:58;;;;;;;;;;;;;;;13.79;49.42;95950.94;5076001;28;19966;-75
2021/10/21 11:40:24;;;;;;;;;;;;;;;13.80;51.16;95967.59;5075571;28;19953;-75
2021/10/21 11:42:51;;;;;;;;;;;;;;;13.79;49.59;95968.63;5075648;28;19953;-75
2021/10/21 11:45:18;;;;;;;;;;;;;;;13.78;49.65;95973.09;5075558;28;19990;-75
2021/10/21 11:47:44;;;;;;;;;;;;;;;13.72;47.85;95954.84;5075585;28;19956;-75
2021/10/21 11:50:10;;;;;;;;;;;;;;;13.72;50.32;95997.81;5075593;28;19958;-75
2021/10/21 11:52:40;;;;;;;;;;;;;;;13.67;49.61;95983.78;5075422;28;19960;-75
2021/10/21 11:55:07;;;;;;;;;;;;;;;13.59;47.33;95979.75;5075333;28;19960;-75
2021/10/21 11:57:33;;;;;;;;;;;;;;;13.56;48.86;95999.47;5075050;28;20018;-75
2021/10/21 12:00:00;;;;;;;;;;;;;;;13.60;47.71;95983.97;5075707;28;19957;-75
2021/10/21 12:02:32;;;;;;;;;;;;;;;13.63;48.31;95977.41;5075030;28;19972;-75
2021/10/21 12:04:58;;;;;;;;;;;;;;;13.66;47.96;95980.34;5075265;28;19993;-75
2021/10/21 12:07:23;;;;;;;;;;;;;;;13.66;48.22;95983.00;5075037;28;20464;-76
2021/10/21 12:09:50;;;;;;;;;;;;;;;13.63;48.25;95987.94;5074893;28;20017;-75
2021/10/21 12:12:16;;;;;;;;;;;;;;;13.58;48.27;95999.22;5074775;28;19954;-75
2021/10/21 12:14:42;;;;;;;;;;;;;;;13.65;48.55;95993.78;5075014;28;19963;-76
2021/10/21 12:17:10;;;;;;;;;;;;;;;13.64;48.05;95977.16;5074952;28;19959;-75
2021/10/21 12:19:38;;;;;;;;;;;;;;;13.59;49.20;95985.81;5073649;28;19962;-75
2021/10/21 12:22:05;;;;;;;;;;;;;;;13.52;48.17;95985.25;5074605;28;19959;-75
2021/10/21 12:24:32;;;;;;;;;;;;;;;13.46;49.33;95991.50;5074642;28;19956;-75
2021/10/21 12:27:00;;;;;;;;;;;;;;;13.46;49.10;95975.69;5074562;28;19976;-75
2021/10/21 12:29:32;;;;;;;;;;;;;;;13.61;49.88;95982.94;5074608;28;19983;-75
2021/10/21 12:31:58;;;;;;;;;;;;;;;13.79;50.14;95976.53;5074503;28;19961;-76
2021/10/21 12:34:25;;;;;;;;;;;;;;;13.90;50.71;95965.03;5074614;28;20042;-75
2021/10/21 12:36:53;;;;;;;;;;;;;;;14.05;49.91;95974.09;5074236;28;19960;-75
2021/10/21 12:39:33;;;;;;;;;;;;;;;14.17;48.88;95949.19;5073603;28;19958;-75
2021/10/21 12:42:01;;;;;;;;;;;;;;;14.24;48.78;95937.59;5073394;28;20308;-75
2021/10/21 12:44:37;;;;;;;;;;;;;;;14.32;50.18;95950.31;5074164;28;20291;-75
2021/10/21 12:47:16;;;;;;;;;;;;;;;14.44;49.72;95942.22;5074244;28;20332;-75
2021/10/21 12:49:54;;;;;;;;;;;;;;;14.64;50.94;95960.06;5061175;28;20450;-75
2021/10/21 12:52:25;;;;;;;;;;;;;;;14.74;49.79;95945.06;5074024;28;20343;-75